sensor_id;sensor_type;location;lat;lon;timestamp;P1;durP1;ratioP1;P2;durP2;ratioP2
57087;SDS011;42965;52.846;6.614;2022-12-18T00:03:47;92.82;;;36.88;;
57087;SDS011;42965;52.846;6.614;2022-12-18T00:06:14;99.18;;;35.15;;
57087;SDS011;42965;52.846;6.614;2022-12-18T00:08:43;97.45;;;38.67;;
57087;SDS011;42965;52.846;6.614;2022-12-18T00:11:13;81.63;;;33.83;;
57087;SDS011;42965;52.846;6.614;2022-12-18T00:13:40;70.05;;;32.08;;
57087;SDS011;42965;52.846;6.614;2022-12-18T00:16:10;79.10;;;33.30;;
57087;SDS011;42965;52.846;6.614;2022-12-18T00:18:38;79.70;;;32.40;;
57087;SDS011;42965;52.846;6.614;2022-12-18T00:21:07;80.78;;;35.50;;
57087;SDS011;42965;52.846;6.614;2022-12-18T00:23:35;75.47;;;34.78;;
57087;SDS011;42965;52.846;6.614;2022-12-18T00:26:05;83.15;;;34.40;;
57087;SDS011;42965;52.846;6.614;2022-12-18T00:28:33;76.15;;;32.70;;
57087;SDS011;42965;52.846;6.614;2022-12-18T00:31:03;83.03;;;33.92;;
57087;SDS011;42965;52.846;6.614;2022-12-18T00:33:32;83.30;;;33.63;;
57087;SDS011;42965;52.846;6.614;2022-12-18T00:36:02;87.07;;;36.30;;
57087;SDS011;42965;52.846;6.614;2022-12-18T00:40:58;89.63;;;35.70;;
57087;SDS011;42965;52.846;6.614;2022-12-18T00:43:24;84.18;;;34.90;;
57087;SDS011;42965;52.846;6.614;2022-12-18T00:45:51;84.28;;;38.35;;
57087;SDS011;42965;52.846;6.614;2022-12-18T00:48:17;98.55;;;38.22;;
57087;SDS011;42965;52.846;6.614;2022-12-18T00:50:44;85.15;;;36.25;;
57087;SDS011;42965;52.846;6.614;2022-12-18T00:53:10;87.43;;;34.80;;
57087;SDS011;42965;52.846;6.614;2022-12-18T00:55:39;86.97;;;36.60;;
57087;SDS011;42965;52.846;6.614;2022-12-18T00:58:06;89.50;;;37.92;;
57087;SDS011;42965;52.846;6.614;2022-12-18T01:00:33;88.18;;;37.30;;
57087;SDS011;42965;52.846;6.614;2022-12-18T01:03:00;90.93;;;36.38;;
57087;SDS011;42965;52.846;6.614;2022-12-18T01:05:26;86.03;;;36.20;;
57087;SDS011;42965;52.846;6.614;2022-12-18T01:07:52;102.07;;;37.92;;
57087;SDS011;42965;52.846;6.614;2022-12-18T01:10:23;98.88;;;41.78;;
57087;SDS011;42965;52.846;6.614;2022-12-18T01:12:49;91.60;;;40.38;;
57087;SDS011;42965;52.846;6.614;2022-12-18T01:15:17;84.50;;;35.67;;
57087;SDS011;42965;52.846;6.614;2022-12-18T01:17:59;92.70;;;38.72;;
57087;SDS011;42965;52.846;6.614;2022-12-18T01:20:26;105.25;;;42.45;;
57087;SDS011;42965;52.846;6.614;2022-12-18T01:22:52;90.47;;;37.38;;
57087;SDS011;42965;52.846;6.614;2022-12-18T01:25:20;90.00;;;38.17;;
57087;SDS011;42965;52.846;6.614;2022-12-18T01:27:46;84.95;;;37.20;;
57087;SDS011;42965;52.846;6.614;2022-12-18T01:30:12;79.05;;;36.70;;
57087;SDS011;42965;52.846;6.614;2022-12-18T01:32:39;86.03;;;37.13;;
57087;SDS011;42965;52.846;6.614;2022-12-18T01:35:06;76.40;;;35.53;;
57087;SDS011;42965;52.846;6.614;2022-12-18T01:37:33;78.50;;;36.38;;
57087;SDS011;42965;52.846;6.614;2022-12-18T01:39:59;74.35;;;34.97;;
57087;SDS011;42965;52.846;6.614;2022-12-18T01:42:26;85.03;;;38.38;;
57087;SDS011;42965;52.846;6.614;2022-12-18T01:53:04;92.28;;;40.60;;
57087;SDS011;42965;52.846;6.614;2022-12-18T01:55:40;93.15;;;37.85;;
57087;SDS011;42965;52.846;6.614;2022-12-18T01:58:11;84.43;;;38.78;;
57087;SDS011;42965;52.846;6.614;2022-12-18T02:00:37;85.25;;;38.22;;
57087;SDS011;42965;52.846;6.614;2022-12-18T02:03:05;92.25;;;38.08;;
57087;SDS011;42965;52.846;6.614;2022-12-18T02:05:37;93.10;;;38.03;;
57087;SDS011;42965;52.846;6.614;2022-12-18T02:19:55;93.60;;;38.70;;
57087;SDS011;42965;52.846;6.614;2022-12-18T02:27:49;83.95;;;36.72;;
57087;SDS011;42965;52.846;6.614;2022-12-18T02:30:19;82.30;;;38.25;;
57087;SDS011;42965;52.846;6.614;2022-12-18T02:32:51;89.32;;;37.13;;
57087;SDS011;42965;52.846;6.614;2022-12-18T02:37:51;85.28;;;36.45;;
57087;SDS011;42965;52.846;6.614;2022-12-18T02:40:19;90.28;;;36.25;;
57087;SDS011;42965;52.846;6.614;2022-12-18T02:42:49;85.15;;;37.28;;
57087;SDS011;42965;52.846;6.614;2022-12-18T02:45:18;96.05;;;40.50;;
57087;SDS011;42965;52.846;6.614;2022-12-18T02:47:46;93.07;;;36.92;;
57087;SDS011;42965;52.846;6.614;2022-12-18T03:03:57;87.18;;;38.72;;
57087;SDS011;42965;52.846;6.614;2022-12-18T03:06:32;89.07;;;39.75;;
57087;SDS011;42965;52.846;6.614;2022-12-18T03:09:08;87.15;;;37.78;;
57087;SDS011;42965;52.846;6.614;2022-12-18T03:11:40;87.22;;;37.72;;
57087;SDS011;42965;52.846;6.614;2022-12-18T03:14:30;83.05;;;36.13;;
57087;SDS011;42965;52.846;6.614;2022-12-18T03:17:03;78.35;;;37.70;;
57087;SDS011;42965;52.846;6.614;2022-12-18T03:19:32;86.47;;;38.17;;
57087;SDS011;42965;52.846;6.614;2022-12-18T03:22:02;78.25;;;35.45;;
57087;SDS011;42965;52.846;6.614;2022-12-18T03:24:39;77.18;;;35.17;;
57087;SDS011;42965;52.846;6.614;2022-12-18T03:27:08;83.60;;;36.97;;
57087;SDS011;42965;52.846;6.614;2022-12-18T03:29:40;89.95;;;36.60;;
57087;SDS011;42965;52.846;6.614;2022-12-18T03:32:28;78.38;;;35.70;;
57087;SDS011;42965;52.846;6.614;2022-12-18T03:34:59;71.20;;;36.90;;
57087;SDS011;42965;52.846;6.614;2022-12-18T03:37:32;88.05;;;35.78;;
57087;SDS011;42965;52.846;6.614;2022-12-18T03:39:59;76.82;;;36.63;;
57087;SDS011;42965;52.846;6.614;2022-12-18T03:50:29;67.72;;;32.78;;
57087;SDS011;42965;52.846;6.614;2022-12-18T03:55:52;65.68;;;32.75;;
57087;SDS011;42965;52.846;6.614;2022-12-18T03:58:20;65.63;;;31.20;;
57087;SDS011;42965;52.846;6.614;2022-12-18T04:01:01;68.93;;;32.50;;
57087;SDS011;42965;52.846;6.614;2022-12-18T04:03:34;67.38;;;32.00;;
57087;SDS011;42965;52.846;6.614;2022-12-18T04:06:02;60.08;;;30.65;;
57087;SDS011;42965;52.846;6.614;2022-12-18T04:08:31;58.63;;;29.30;;
57087;SDS011;42965;52.846;6.614;2022-12-18T04:11:10;58.65;;;31.00;;
57087;SDS011;42965;52.846;6.614;2022-12-18T04:13:37;58.22;;;30.98;;
57087;SDS011;42965;52.846;6.614;2022-12-18T04:16:08;56.30;;;28.63;;
57087;SDS011;42965;52.846;6.614;2022-12-18T04:18:43;55.72;;;28.85;;
57087;SDS011;42965;52.846;6.614;2022-12-18T04:21:13;50.10;;;27.38;;
57087;SDS011;42965;52.846;6.614;2022-12-18T04:23:41;63.55;;;29.42;;
57087;SDS011;42965;52.846;6.614;2022-12-18T04:26:07;53.83;;;28.63;;
57087;SDS011;42965;52.846;6.614;2022-12-18T04:28:45;57.90;;;29.67;;
57087;SDS011;42965;52.846;6.614;2022-12-18T04:31:12;49.97;;;26.88;;
57087;SDS011;42965;52.846;6.614;2022-12-18T04:33:39;56.67;;;27.98;;
57087;SDS011;42965;52.846;6.614;2022-12-18T04:36:06;56.65;;;26.17;;
57087;SDS011;42965;52.846;6.614;2022-12-18T04:38:36;49.17;;;25.70;;
57087;SDS011;42965;52.846;6.614;2022-12-18T04:41:07;56.75;;;27.67;;
57087;SDS011;42965;52.846;6.614;2022-12-18T04:43:34;46.33;;;26.13;;
57087;SDS011;42965;52.846;6.614;2022-12-18T04:46:10;53.22;;;28.08;;
57087;SDS011;42965;52.846;6.614;2022-12-18T04:48:36;53.70;;;26.52;;
57087;SDS011;42965;52.846;6.614;2022-12-18T04:51:03;51.72;;;27.55;;
57087;SDS011;42965;52.846;6.614;2022-12-18T04:53:34;49.08;;;25.55;;
57087;SDS011;42965;52.846;6.614;2022-12-18T04:56:05;38.92;;;23.90;;
57087;SDS011;42965;52.846;6.614;2022-12-18T04:58:36;49.00;;;25.67;;
57087;SDS011;42965;52.846;6.614;2022-12-18T05:01:04;48.15;;;24.25;;
57087;SDS011;42965;52.846;6.614;2022-12-18T05:03:31;47.53;;;25.92;;
57087;SDS011;42965;52.846;6.614;2022-12-18T05:05:57;45.05;;;25.48;;
57087;SDS011;42965;52.846;6.614;2022-12-18T05:08:24;44.03;;;23.15;;
57087;SDS011;42965;52.846;6.614;2022-12-18T05:10:58;43.13;;;22.92;;
57087;SDS011;42965;52.846;6.614;2022-12-18T05:13:30;47.38;;;26.05;;
57087;SDS011;42965;52.846;6.614;2022-12-18T05:15:57;46.22;;;24.63;;
57087;SDS011;42965;52.846;6.614;2022-12-18T05:18:24;43.03;;;22.73;;
57087;SDS011;42965;52.846;6.614;2022-12-18T05:20:51;47.05;;;24.38;;
57087;SDS011;42965;52.846;6.614;2022-12-18T05:23:18;42.15;;;23.42;;
57087;SDS011;42965;52.846;6.614;2022-12-18T05:25:50;41.90;;;23.55;;
57087;SDS011;42965;52.846;6.614;2022-12-18T05:28:24;50.10;;;24.45;;
57087;SDS011;42965;52.846;6.614;2022-12-18T05:30:51;48.97;;;23.73;;
57087;SDS011;42965;52.846;6.614;2022-12-18T05:33:19;45.85;;;24.40;;
57087;SDS011;42965;52.846;6.614;2022-12-18T05:35:57;51.88;;;26.85;;
57087;SDS011;42965;52.846;6.614;2022-12-18T05:38:25;47.13;;;24.30;;
57087;SDS011;42965;52.846;6.614;2022-12-18T05:40:58;53.38;;;25.92;;
57087;SDS011;42965;52.846;6.614;2022-12-18T05:43:25;50.70;;;25.17;;
57087;SDS011;42965;52.846;6.614;2022-12-18T05:45:52;46.35;;;23.83;;
57087;SDS011;42965;52.846;6.614;2022-12-18T05:48:20;55.08;;;24.25;;
57087;SDS011;42965;52.846;6.614;2022-12-18T05:50:47;48.45;;;27.35;;
57087;SDS011;42965;52.846;6.614;2022-12-18T05:53:15;45.88;;;25.02;;
57087;SDS011;42965;52.846;6.614;2022-12-18T05:55:44;56.88;;;27.15;;
57087;SDS011;42965;52.846;6.614;2022-12-18T05:58:12;53.92;;;25.67;;
57087;SDS011;42965;52.846;6.614;2022-12-18T06:00:40;45.67;;;22.20;;
57087;SDS011;42965;52.846;6.614;2022-12-18T06:03:11;43.90;;;25.42;;
57087;SDS011;42965;52.846;6.614;2022-12-18T06:05:39;47.42;;;25.23;;
57087;SDS011;42965;52.846;6.614;2022-12-18T06:08:07;43.47;;;23.08;;
57087;SDS011;42965;52.846;6.614;2022-12-18T06:10:34;41.80;;;24.00;;
57087;SDS011;42965;52.846;6.614;2022-12-18T06:13:00;48.97;;;24.73;;
57087;SDS011;42965;52.846;6.614;2022-12-18T06:15:27;46.13;;;24.77;;
57087;SDS011;42965;52.846;6.614;2022-12-18T06:17:53;49.08;;;24.33;;
57087;SDS011;42965;52.846;6.614;2022-12-18T06:20:19;49.10;;;25.25;;
57087;SDS011;42965;52.846;6.614;2022-12-18T06:22:46;55.30;;;26.05;;
57087;SDS011;42965;52.846;6.614;2022-12-18T06:25:12;50.85;;;25.17;;
57087;SDS011;42965;52.846;6.614;2022-12-18T06:27:39;44.05;;;23.55;;
57087;SDS011;42965;52.846;6.614;2022-12-18T06:30:05;45.42;;;23.52;;
57087;SDS011;42965;52.846;6.614;2022-12-18T06:32:39;41.40;;;22.27;;
57087;SDS011;42965;52.846;6.614;2022-12-18T06:35:06;41.78;;;21.13;;
57087;SDS011;42965;52.846;6.614;2022-12-18T06:37:32;47.33;;;24.17;;
57087;SDS011;42965;52.846;6.614;2022-12-18T06:39:58;43.47;;;23.30;;
57087;SDS011;42965;52.846;6.614;2022-12-18T06:42:28;46.10;;;25.17;;
57087;SDS011;42965;52.846;6.614;2022-12-18T06:45:04;42.17;;;24.45;;
57087;SDS011;42965;52.846;6.614;2022-12-18T06:47:30;39.38;;;23.00;;
57087;SDS011;42965;52.846;6.614;2022-12-18T06:49:56;43.97;;;24.08;;
57087;SDS011;42965;52.846;6.614;2022-12-18T06:52:23;40.28;;;23.42;;
57087;SDS011;42965;52.846;6.614;2022-12-18T06:54:50;42.88;;;23.33;;
57087;SDS011;42965;52.846;6.614;2022-12-18T06:57:16;38.20;;;23.42;;
57087;SDS011;42965;52.846;6.614;2022-12-18T06:59:44;40.83;;;22.00;;
57087;SDS011;42965;52.846;6.614;2022-12-18T07:02:12;40.72;;;21.23;;
57087;SDS011;42965;52.846;6.614;2022-12-18T07:04:39;38.90;;;22.10;;
57087;SDS011;42965;52.846;6.614;2022-12-18T07:07:06;37.00;;;20.73;;
57087;SDS011;42965;52.846;6.614;2022-12-18T07:09:32;39.15;;;21.90;;
57087;SDS011;42965;52.846;6.614;2022-12-18T07:11:58;40.58;;;22.05;;
57087;SDS011;42965;52.846;6.614;2022-12-18T07:14:24;34.85;;;19.33;;
57087;SDS011;42965;52.846;6.614;2022-12-18T07:16:51;30.65;;;18.80;;
57087;SDS011;42965;52.846;6.614;2022-12-18T07:19:17;32.97;;;18.63;;
57087;SDS011;42965;52.846;6.614;2022-12-18T07:21:43;39.20;;;22.35;;
57087;SDS011;42965;52.846;6.614;2022-12-18T07:24:11;38.83;;;20.02;;
57087;SDS011;42965;52.846;6.614;2022-12-18T07:26:37;31.92;;;19.48;;
57087;SDS011;42965;52.846;6.614;2022-12-18T07:29:03;37.35;;;21.17;;
57087;SDS011;42965;52.846;6.614;2022-12-18T07:31:30;35.08;;;20.70;;
57087;SDS011;42965;52.846;6.614;2022-12-18T07:33:56;35.00;;;21.02;;
57087;SDS011;42965;52.846;6.614;2022-12-18T07:36:22;34.22;;;21.58;;
57087;SDS011;42965;52.846;6.614;2022-12-18T07:38:49;37.25;;;21.40;;
57087;SDS011;42965;52.846;6.614;2022-12-18T07:41:17;32.20;;;19.90;;
57087;SDS011;42965;52.846;6.614;2022-12-18T07:43:45;33.85;;;18.52;;
57087;SDS011;42965;52.846;6.614;2022-12-18T07:46:12;32.15;;;20.23;;
57087;SDS011;42965;52.846;6.614;2022-12-18T07:48:43;37.03;;;20.65;;
57087;SDS011;42965;52.846;6.614;2022-12-18T07:51:14;34.88;;;19.27;;
57087;SDS011;42965;52.846;6.614;2022-12-18T07:53:41;35.95;;;20.38;;
57087;SDS011;42965;52.846;6.614;2022-12-18T07:56:09;36.85;;;21.33;;
57087;SDS011;42965;52.846;6.614;2022-12-18T07:58:37;37.85;;;21.98;;
57087;SDS011;42965;52.846;6.614;2022-12-18T08:01:07;31.27;;;19.30;;
57087;SDS011;42965;52.846;6.614;2022-12-18T08:03:34;32.58;;;19.90;;
57087;SDS011;42965;52.846;6.614;2022-12-18T08:06:02;34.97;;;19.95;;
57087;SDS011;42965;52.846;6.614;2022-12-18T08:08:30;34.53;;;19.92;;
57087;SDS011;42965;52.846;6.614;2022-12-18T08:10:57;32.72;;;20.15;;
57087;SDS011;42965;52.846;6.614;2022-12-18T08:13:23;34.30;;;19.00;;
57087;SDS011;42965;52.846;6.614;2022-12-18T08:16:03;33.28;;;19.20;;
57087;SDS011;42965;52.846;6.614;2022-12-18T08:18:35;32.65;;;19.10;;
57087;SDS011;42965;52.846;6.614;2022-12-18T08:21:12;34.50;;;17.83;;
57087;SDS011;42965;52.846;6.614;2022-12-18T08:23:39;29.50;;;18.27;;
57087;SDS011;42965;52.846;6.614;2022-12-18T08:26:06;37.88;;;18.70;;
57087;SDS011;42965;52.846;6.614;2022-12-18T08:28:33;31.50;;;16.25;;
57087;SDS011;42965;52.846;6.614;2022-12-18T08:31:00;24.90;;;16.65;;
57087;SDS011;42965;52.846;6.614;2022-12-18T08:33:26;27.27;;;16.15;;
57087;SDS011;42965;52.846;6.614;2022-12-18T08:35:53;26.85;;;16.02;;
57087;SDS011;42965;52.846;6.614;2022-12-18T08:38:20;29.25;;;16.80;;
57087;SDS011;42965;52.846;6.614;2022-12-18T08:40:46;23.73;;;16.08;;
57087;SDS011;42965;52.846;6.614;2022-12-18T08:43:12;25.33;;;15.23;;
57087;SDS011;42965;52.846;6.614;2022-12-18T08:45:58;25.27;;;16.13;;
57087;SDS011;42965;52.846;6.614;2022-12-18T08:48:24;23.73;;;15.75;;
57087;SDS011;42965;52.846;6.614;2022-12-18T08:50:55;24.80;;;15.63;;
57087;SDS011;42965;52.846;6.614;2022-12-18T08:53:22;21.38;;;14.40;;
57087;SDS011;42965;52.846;6.614;2022-12-18T08:55:48;23.70;;;15.43;;
57087;SDS011;42965;52.846;6.614;2022-12-18T08:58:15;23.88;;;15.10;;
57087;SDS011;42965;52.846;6.614;2022-12-18T09:00:41;21.30;;;13.73;;
57087;SDS011;42965;52.846;6.614;2022-12-18T09:03:15;26.02;;;15.57;;
57087;SDS011;42965;52.846;6.614;2022-12-18T09:05:43;22.55;;;14.50;;
57087;SDS011;42965;52.846;6.614;2022-12-18T09:08:12;24.60;;;16.02;;
57087;SDS011;42965;52.846;6.614;2022-12-18T09:10:42;19.35;;;13.73;;
57087;SDS011;42965;52.846;6.614;2022-12-18T09:13:16;22.70;;;14.35;;
57087;SDS011;42965;52.846;6.614;2022-12-18T09:15:45;22.05;;;14.32;;
57087;SDS011;42965;52.846;6.614;2022-12-18T09:18:16;24.05;;;14.00;;
57087;SDS011;42965;52.846;6.614;2022-12-18T09:20:44;19.30;;;12.43;;
57087;SDS011;42965;52.846;6.614;2022-12-18T09:23:12;17.63;;;12.07;;
57087;SDS011;42965;52.846;6.614;2022-12-18T09:25:38;20.50;;;12.20;;
57087;SDS011;42965;52.846;6.614;2022-12-18T09:28:06;21.15;;;13.02;;
57087;SDS011;42965;52.846;6.614;2022-12-18T09:30:38;18.83;;;13.43;;
57087;SDS011;42965;52.846;6.614;2022-12-18T09:33:05;22.25;;;13.85;;
57087;SDS011;42965;52.846;6.614;2022-12-18T09:35:31;17.40;;;11.68;;
57087;SDS011;42965;52.846;6.614;2022-12-18T09:37:58;20.27;;;13.15;;
57087;SDS011;42965;52.846;6.614;2022-12-18T09:40:25;18.60;;;12.05;;
57087;SDS011;42965;52.846;6.614;2022-12-18T09:42:56;17.67;;;12.02;;
57087;SDS011;42965;52.846;6.614;2022-12-18T09:45:26;16.58;;;10.77;;
57087;SDS011;42965;52.846;6.614;2022-12-18T09:47:55;15.20;;;11.32;;
57087;SDS011;42965;52.846;6.614;2022-12-18T09:50:27;17.98;;;11.55;;
57087;SDS011;42965;52.846;6.614;2022-12-18T09:52:59;15.68;;;11.38;;
57087;SDS011;42965;52.846;6.614;2022-12-18T09:55:35;17.23;;;10.25;;
57087;SDS011;42965;52.846;6.614;2022-12-18T09:58:06;14.93;;;9.65;;
57087;SDS011;42965;52.846;6.614;2022-12-18T10:00:41;16.92;;;10.75;;
57087;SDS011;42965;52.846;6.614;2022-12-18T10:03:11;14.30;;;9.45;;
57087;SDS011;42965;52.846;6.614;2022-12-18T10:08:21;15.63;;;9.82;;
57087;SDS011;42965;52.846;6.614;2022-12-18T10:10:53;13.32;;;9.82;;
57087;SDS011;42965;52.846;6.614;2022-12-18T10:13:26;15.43;;;9.88;;
57087;SDS011;42965;52.846;6.614;2022-12-18T10:27:14;13.10;;;8.70;;
57087;SDS011;42965;52.846;6.614;2022-12-18T10:29:43;11.75;;;8.02;;
57087;SDS011;42965;52.846;6.614;2022-12-18T10:32:18;10.88;;;7.95;;
57087;SDS011;42965;52.846;6.614;2022-12-18T10:34:47;20.35;;;14.27;;
57087;SDS011;42965;52.846;6.614;2022-12-18T10:37:19;10.73;;;7.75;;
57087;SDS011;42965;52.846;6.614;2022-12-18T10:43:04;13.68;;;7.35;;
57087;SDS011;42965;52.846;6.614;2022-12-18T10:45:41;13.63;;;7.80;;
57087;SDS011;42965;52.846;6.614;2022-12-18T10:48:18;12.05;;;8.45;;
57087;SDS011;42965;52.846;6.614;2022-12-18T10:50:47;13.10;;;7.63;;
57087;SDS011;42965;52.846;6.614;2022-12-18T10:53:19;11.15;;;7.78;;
57087;SDS011;42965;52.846;6.614;2022-12-18T10:55:49;10.30;;;6.97;;
57087;SDS011;42965;52.846;6.614;2022-12-18T10:58:33;12.10;;;8.20;;
57087;SDS011;42965;52.846;6.614;2022-12-18T11:01:11;11.57;;;7.25;;
57087;SDS011;42965;52.846;6.614;2022-12-18T11:06:11;9.02;;;6.80;;
57087;SDS011;42965;52.846;6.614;2022-12-18T11:11:30;12.45;;;6.57;;
57087;SDS011;42965;52.846;6.614;2022-12-18T11:14:05;11.20;;;6.65;;
57087;SDS011;42965;52.846;6.614;2022-12-18T11:16:44;8.85;;;5.65;;
57087;SDS011;42965;52.846;6.614;2022-12-18T11:19:20;8.13;;;6.22;;
57087;SDS011;42965;52.846;6.614;2022-12-18T11:21:54;8.98;;;5.93;;
57087;SDS011;42965;52.846;6.614;2022-12-18T11:24:34;8.20;;;5.65;;
57087;SDS011;42965;52.846;6.614;2022-12-18T11:27:06;8.50;;;5.90;;
57087;SDS011;42965;52.846;6.614;2022-12-18T11:29:44;9.13;;;6.50;;
57087;SDS011;42965;52.846;6.614;2022-12-18T11:35:25;9.07;;;5.40;;
57087;SDS011;42965;52.846;6.614;2022-12-18T11:37:57;6.57;;;4.63;;
57087;SDS011;42965;52.846;6.614;2022-12-18T11:40:35;8.65;;;5.90;;
57087;SDS011;42965;52.846;6.614;2022-12-18T11:45:52;10.73;;;6.75;;
57087;SDS011;42965;52.846;6.614;2022-12-18T11:48:33;8.50;;;5.90;;
57087;SDS011;42965;52.846;6.614;2022-12-18T11:51:20;8.95;;;5.95;;
57087;SDS011;42965;52.846;6.614;2022-12-18T11:53:54;9.68;;;5.28;;
57087;SDS011;42965;52.846;6.614;2022-12-18T11:59:08;10.13;;;6.70;;
57087;SDS011;42965;52.846;6.614;2022-12-18T12:07:28;11.15;;;7.03;;
57087;SDS011;42965;52.846;6.614;2022-12-18T12:10:16;15.15;;;8.75;;
57087;SDS011;42965;52.846;6.614;2022-12-18T12:13:05;10.60;;;6.90;;
57087;SDS011;42965;52.846;6.614;2022-12-18T12:18:41;8.45;;;5.38;;
57087;SDS011;42965;52.846;6.614;2022-12-18T12:32:19;6.68;;;5.40;;
57087;SDS011;42965;52.846;6.614;2022-12-18T12:35:31;6.18;;;4.85;;
57087;SDS011;42965;52.846;6.614;2022-12-18T12:38:59;11.20;;;6.93;;
57087;SDS011;42965;52.846;6.614;2022-12-18T12:40:59;9.93;;;6.47;;
57087;SDS011;42965;52.846;6.614;2022-12-18T12:43:34;10.05;;;6.55;;
57087;SDS011;42965;52.846;6.614;2022-12-18T12:46:12;8.82;;;5.68;;
57087;SDS011;42965;52.846;6.614;2022-12-18T12:48:43;7.90;;;5.93;;
57087;SDS011;42965;52.846;6.614;2022-12-18T12:51:18;12.63;;;6.18;;
57087;SDS011;42965;52.846;6.614;2022-12-18T12:53:47;11.38;;;6.35;;
57087;SDS011;42965;52.846;6.614;2022-12-18T12:56:16;9.40;;;6.38;;
57087;SDS011;42965;52.846;6.614;2022-12-18T13:01:23;10.15;;;6.32;;
57087;SDS011;42965;52.846;6.614;2022-12-18T13:18:17;9.65;;;6.95;;
57087;SDS011;42965;52.846;6.614;2022-12-18T13:36:50;9.45;;;6.10;;
57087;SDS011;42965;52.846;6.614;2022-12-18T13:39:30;10.65;;;5.82;;
57087;SDS011;42965;52.846;6.614;2022-12-18T13:44:32;9.30;;;6.18;;
57087;SDS011;42965;52.846;6.614;2022-12-18T13:47:03;13.85;;;8.60;;
57087;SDS011;42965;52.846;6.614;2022-12-18T13:49:39;10.88;;;6.85;;
57087;SDS011;42965;52.846;6.614;2022-12-18T13:52:16;9.85;;;6.72;;
57087;SDS011;42965;52.846;6.614;2022-12-18T13:54:47;9.15;;;5.93;;
57087;SDS011;42965;52.846;6.614;2022-12-18T13:57:30;13.18;;;7.15;;
57087;SDS011;42965;52.846;6.614;2022-12-18T14:02:48;10.27;;;6.45;;
57087;SDS011;42965;52.846;6.614;2022-12-18T14:05:32;11.43;;;7.57;;
57087;SDS011;42965;52.846;6.614;2022-12-18T14:08:03;9.45;;;6.45;;
57087;SDS011;42965;52.846;6.614;2022-12-18T14:10:33;10.48;;;6.45;;
57087;SDS011;42965;52.846;6.614;2022-12-18T14:13:08;9.43;;;6.72;;
57087;SDS011;42965;52.846;6.614;2022-12-18T14:15:39;12.23;;;8.00;;
57087;SDS011;42965;52.846;6.614;2022-12-18T14:18:28;10.38;;;7.85;;
57087;SDS011;42965;52.846;6.614;2022-12-18T14:20:56;13.45;;;7.57;;
57087;SDS011;42965;52.846;6.614;2022-12-18T14:23:29;10.88;;;6.72;;
57087;SDS011;42965;52.846;6.614;2022-12-18T14:26:01;11.45;;;7.85;;
57087;SDS011;42965;52.846;6.614;2022-12-18T14:28:45;11.45;;;7.60;;
57087;SDS011;42965;52.846;6.614;2022-12-18T14:31:22;10.85;;;7.57;;
57087;SDS011;42965;52.846;6.614;2022-12-18T14:33:51;11.30;;;7.85;;
57087;SDS011;42965;52.846;6.614;2022-12-18T14:36:19;11.48;;;7.50;;
57087;SDS011;42965;52.846;6.614;2022-12-18T14:38:49;12.18;;;7.68;;
57087;SDS011;42965;52.846;6.614;2022-12-18T14:41:17;9.93;;;7.40;;
57087;SDS011;42965;52.846;6.614;2022-12-18T14:43:47;11.75;;;7.80;;
57087;SDS011;42965;52.846;6.614;2022-12-18T14:49:26;12.45;;;8.40;;
57087;SDS011;42965;52.846;6.614;2022-12-18T14:54:29;10.77;;;7.35;;
57087;SDS011;42965;52.846;6.614;2022-12-18T14:59:28;11.48;;;8.20;;
57087;SDS011;42965;52.846;6.614;2022-12-18T15:04:41;11.98;;;8.13;;
57087;SDS011;42965;52.846;6.614;2022-12-18T15:07:22;13.15;;;8.80;;
57087;SDS011;42965;52.846;6.614;2022-12-18T15:15:02;15.60;;;9.40;;
57087;SDS011;42965;52.846;6.614;2022-12-18T15:17:30;15.07;;;9.73;;
57087;SDS011;42965;52.846;6.614;2022-12-18T15:20:03;13.10;;;9.35;;
57087;SDS011;42965;52.846;6.614;2022-12-18T15:22:37;13.10;;;8.82;;
57087;SDS011;42965;52.846;6.614;2022-12-18T15:25:04;12.27;;;10.15;;
57087;SDS011;42965;52.846;6.614;2022-12-18T15:28:04;14.20;;;9.20;;
57087;SDS011;42965;52.846;6.614;2022-12-18T15:33:38;11.50;;;9.10;;
57087;SDS011;42965;52.846;6.614;2022-12-18T15:36:30;13.85;;;9.57;;
57087;SDS011;42965;52.846;6.614;2022-12-18T15:38:57;14.60;;;9.40;;
57087;SDS011;42965;52.846;6.614;2022-12-18T15:41:24;15.07;;;9.80;;
57087;SDS011;42965;52.846;6.614;2022-12-18T15:43:52;14.85;;;9.05;;
57087;SDS011;42965;52.846;6.614;2022-12-18T15:46:20;11.98;;;10.02;;
57087;SDS011;42965;52.846;6.614;2022-12-18T15:48:51;14.23;;;10.00;;
57087;SDS011;42965;52.846;6.614;2022-12-18T15:53:47;14.02;;;10.15;;
57087;SDS011;42965;52.846;6.614;2022-12-18T15:56:15;15.70;;;10.48;;
57087;SDS011;42965;52.846;6.614;2022-12-18T15:59:01;12.98;;;9.98;;
57087;SDS011;42965;52.846;6.614;2022-12-18T16:01:29;14.90;;;11.13;;
57087;SDS011;42965;52.846;6.614;2022-12-18T16:03:57;15.60;;;10.38;;
57087;SDS011;42965;52.846;6.614;2022-12-18T16:06:23;15.43;;;10.10;;
57087;SDS011;42965;52.846;6.614;2022-12-18T16:08:50;16.10;;;11.15;;
57087;SDS011;42965;52.846;6.614;2022-12-18T16:11:20;15.13;;;10.23;;
57087;SDS011;42965;52.846;6.614;2022-12-18T16:14:12;14.93;;;10.25;;
57087;SDS011;42965;52.846;6.614;2022-12-18T16:16:48;15.45;;;10.25;;
57087;SDS011;42965;52.846;6.614;2022-12-18T16:19:27;13.13;;;9.10;;
57087;SDS011;42965;52.846;6.614;2022-12-18T16:21:54;15.38;;;10.13;;
57087;SDS011;42965;52.846;6.614;2022-12-18T16:24:22;20.80;;;12.05;;
57087;SDS011;42965;52.846;6.614;2022-12-18T16:26:50;14.15;;;9.45;;
57087;SDS011;42965;52.846;6.614;2022-12-18T16:29:17;15.98;;;10.50;;
57087;SDS011;42965;52.846;6.614;2022-12-18T16:31:45;12.70;;;8.63;;
57087;SDS011;42965;52.846;6.614;2022-12-18T16:34:12;14.05;;;9.90;;
57087;SDS011;42965;52.846;6.614;2022-12-18T16:36:43;12.95;;;9.32;;
57087;SDS011;42965;52.846;6.614;2022-12-18T16:39:10;12.15;;;9.57;;
57087;SDS011;42965;52.846;6.614;2022-12-18T16:41:36;14.70;;;11.45;;
57087;SDS011;42965;52.846;6.614;2022-12-18T16:44:03;14.35;;;9.82;;
57087;SDS011;42965;52.846;6.614;2022-12-18T16:46:30;13.10;;;9.68;;
57087;SDS011;42965;52.846;6.614;2022-12-18T16:48:57;12.15;;;9.52;;
57087;SDS011;42965;52.846;6.614;2022-12-18T16:51:28;14.05;;;10.35;;
57087;SDS011;42965;52.846;6.614;2022-12-18T16:53:55;15.82;;;9.23;;
57087;SDS011;42965;52.846;6.614;2022-12-18T16:56:22;14.65;;;10.57;;
57087;SDS011;42965;52.846;6.614;2022-12-18T16:58:53;16.05;;;10.63;;
57087;SDS011;42965;52.846;6.614;2022-12-18T17:01:21;14.18;;;10.63;;
57087;SDS011;42965;52.846;6.614;2022-12-18T17:03:55;13.77;;;10.23;;
57087;SDS011;42965;52.846;6.614;2022-12-18T17:06:24;12.52;;;9.45;;
57087;SDS011;42965;52.846;6.614;2022-12-18T17:08:58;13.43;;;9.27;;
57087;SDS011;42965;52.846;6.614;2022-12-18T17:11:26;14.07;;;9.60;;
57087;SDS011;42965;52.846;6.614;2022-12-18T17:13:54;12.30;;;9.00;;
57087;SDS011;42965;52.846;6.614;2022-12-18T17:16:20;13.60;;;10.20;;
57087;SDS011;42965;52.846;6.614;2022-12-18T17:18:48;13.18;;;9.60;;
57087;SDS011;42965;52.846;6.614;2022-12-18T17:21:14;15.52;;;10.18;;
57087;SDS011;42965;52.846;6.614;2022-12-18T17:23:41;13.95;;;9.90;;
57087;SDS011;42965;52.846;6.614;2022-12-18T17:26:09;13.52;;;9.70;;
57087;SDS011;42965;52.846;6.614;2022-12-18T17:28:37;14.13;;;9.10;;
57087;SDS011;42965;52.846;6.614;2022-12-18T17:31:11;17.00;;;10.27;;
57087;SDS011;42965;52.846;6.614;2022-12-18T17:33:40;13.30;;;10.38;;